sensor_id;sensor_type;location;lat;lon;timestamp;pressure;altitude;pressure_sealevel;temperature;humidity
9474;BME280;8865;47.636;7.692;2022-11-12T00:00:49;99878.44;;;6.24;100.00
9474;BME280;8865;47.636;7.692;2022-11-12T00:03:15;99876.66;;;6.25;100.00
9474;BME280;8865;47.636;7.692;2022-11-12T00:05:43;99873.16;;;6.26;100.00
9474;BME280;8865;47.636;7.692;2022-11-12T00:08:10;99867.84;;;6.29;100.00
9474;BME280;8865;47.636;7.692;2022-11-12T00:10:36;99883.38;;;6.31;100.00
9474;BME280;8865;47.636;7.692;2022-11-12T00:13:02;99877.47;;;6.27;100.00
9474;BME280;8865;47.636;7.692;2022-11-12T00:15:28;99871.22;;;6.31;100.00
9474;BME280;8865;47.636;7.692;2022-11-12T00:17:54;99880.78;;;6.31;100.00
9474;BME280;8865;47.636;7.692;2022-11-12T00:20:20;99876.88;;;6.20;100.00
9474;BME280;8865;47.636;7.692;2022-11-12T00:22:46;99877.13;;;6.14;100.00
9474;BME280;8865;47.636;7.692;2022-11-12T00:25:12;99871.91;;;6.14;100.00
9474;BME280;8865;47.636;7.692;2022-11-12T00:27:38;99873.16;;;6.05;100.00
9474;BME280;8865;47.636;7.692;2022-11-12T00:30:04;99873.31;;;6.02;100.00
9474;BME280;8865;47.636;7.692;2022-11-12T00:32:31;99874.97;;;6.03;100.00
9474;BME280;8865;47.636;7.692;2022-11-12T00:34:56;99875.09;;;6.00;100.00
9474;BME280;8865;47.636;7.692;2022-11-12T00:37:23;99868.94;;;6.03;100.00
9474;BME280;8865;47.636;7.692;2022-11-12T00:39:49;99875.91;;;6.02;100.00
9474;BME280;8865;47.636;7.692;2022-11-12T00:42:15;99873.38;;;6.01;100.00
9474;BME280;8865;47.636;7.692;2022-11-12T00:44:41;99875.91;;;6.02;100.00
9474;BME280;8865;47.636;7.692;2022-11-12T00:47:07;99875.91;;;6.02;100.00
9474;BME280;8865;47.636;7.692;2022-11-12T00:49:33;99875.97;;;6.01;100.00
9474;BME280;8865;47.636;7.692;2022-11-12T00:51:59;99877.03;;;5.95;100.00
9474;BME280;8865;47.636;7.692;2022-11-12T00:54:26;99876.03;;;5.99;100.00
9474;BME280;8865;47.636;7.692;2022-11-12T00:56:52;99884.78;;;5.97;100.00
9474;BME280;8865;47.636;7.692;2022-11-12T00:59:18;99877.03;;;5.95;100.00
9474;BME280;8865;47.636;7.692;2022-11-12T01:01:44;99870.91;;;5.96;100.00
9474;BME280;8865;47.636;7.692;2022-11-12T01:04:10;99878.84;;;5.93;100.00
9474;BME280;8865;47.636;7.692;2022-11-12T01:06:38;99877.84;;;5.96;100.00
9474;BME280;8865;47.636;7.692;2022-11-12T01:09:04;99876.94;;;5.98;100.00
9474;BME280;8865;47.636;7.692;2022-11-12T01:11:31;99875.16;;;5.99;100.00
9474;BME280;8865;47.636;7.692;2022-11-12T01:14:05;99884.59;;;6.01;100.00
9474;BME280;8865;47.636;7.692;2022-11-12T01:16:34;99882.91;;;6.00;100.00
9474;BME280;8865;47.636;7.692;2022-11-12T01:19:03;99882.13;;;5.98;100.00
9474;BME280;8865;47.636;7.692;2022-11-12T01:21:30;99884.59;;;6.01;100.00
9474;BME280;8865;47.636;7.692;2022-11-12T01:23:58;99875.97;;;6.01;100.00
9474;BME280;8865;47.636;7.692;2022-11-12T01:26:25;99875.09;;;6.00;100.00
9474;BME280;8865;47.636;7.692;2022-11-12T01:28:53;99877.00;;;5.97;100.00
9474;BME280;8865;47.636;7.692;2022-11-12T01:31:31;99868.31;;;5.96;100.00
9474;BME280;8865;47.636;7.692;2022-11-12T01:34:02;99864.06;;;5.94;100.00
9474;BME280;8865;47.636;7.692;2022-11-12T01:36:32;99862.16;;;5.99;100.00
9474;BME280;8865;47.636;7.692;2022-11-12T01:38:58;99860.47;;;5.98;100.00
9474;BME280;8865;47.636;7.692;2022-11-12T01:41:27;99866.88;;;5.89;100.00
9474;BME280;8865;47.636;7.692;2022-11-12T01:46:41;99865.16;;;5.88;100.00
9474;BME280;8865;47.636;7.692;2022-11-12T01:49:13;99851.19;;;5.90;100.00
9474;BME280;8865;47.636;7.692;2022-11-12T01:51:43;99853.34;;;5.81;100.00
9474;BME280;8865;47.636;7.692;2022-11-12T01:54:14;99849.69;;;5.85;100.00
9474;BME280;8865;47.636;7.692;2022-11-12T01:56:41;99854.13;;;5.83;100.00
9474;BME280;8865;47.636;7.692;2022-11-12T01:59:12;99847.22;;;5.82;100.00
9474;BME280;8865;47.636;7.692;2022-11-12T02:01:39;99843.78;;;5.81;100.00
9474;BME280;8865;47.636;7.692;2022-11-12T02:04:05;99845.28;;;5.87;100.00
9474;BME280;8865;47.636;7.692;2022-11-12T02:06:31;99845.16;;;5.90;100.00
9474;BME280;8865;47.636;7.692;2022-11-12T02:08:59;99827.88;;;5.89;100.00
9474;BME280;8865;47.636;7.692;2022-11-12T02:11:25;99838.25;;;5.89;100.00
9474;BME280;8865;47.636;7.692;2022-11-12T02:13:52;99830.47;;;5.89;100.00
9474;BME280;8865;47.636;7.692;2022-11-12T02:16:32;99829.56;;;5.90;100.00
9474;BME280;8865;47.636;7.692;2022-11-12T02:18:59;99831.91;;;5.96;100.00
9474;BME280;8865;47.636;7.692;2022-11-12T02:21:26;99838.50;;;6.05;100.00
9474;BME280;8865;47.636;7.692;2022-11-12T02:23:57;99828.75;;;6.10;100.00
9474;BME280;8865;47.636;7.692;2022-11-12T02:26:23;99831.41;;;6.08;100.00
9474;BME280;8865;47.636;7.692;2022-11-12T02:28:49;99827.19;;;6.06;100.00
9474;BME280;8865;47.636;7.692;2022-11-12T02:31:15;99833.22;;;6.06;100.00
9474;BME280;8865;47.636;7.692;2022-11-12T02:33:41;99823.81;;;6.04;100.00
9474;BME280;8865;47.636;7.692;2022-11-12T02:36:08;99824.38;;;6.11;100.00
9474;BME280;8865;47.636;7.692;2022-11-12T02:38:34;99824.38;;;6.11;100.00
9474;BME280;8865;47.636;7.692;2022-11-12T02:41:00;99820.75;;;6.15;100.00
9474;BME280;8865;47.636;7.692;2022-11-12T02:43:26;99819.25;;;6.09;100.00
9474;BME280;8865;47.636;7.692;2022-11-12T02:45:52;99820.88;;;6.12;100.00
9474;BME280;8865;47.636;7.692;2022-11-12T02:48:17;99819.00;;;6.15;100.00
9474;BME280;8865;47.636;7.692;2022-11-12T02:50:43;99819.06;;;6.14;100.00
9474;BME280;8865;47.636;7.692;2022-11-12T02:53:09;99819.81;;;6.16;100.00
9474;BME280;8865;47.636;7.692;2022-11-12T02:55:35;99831.28;;;6.12;100.00
9474;BME280;8865;47.636;7.692;2022-11-12T02:58:01;99814.69;;;6.14;100.00
9474;BME280;8865;47.636;7.692;2022-11-12T03:00:27;99816.38;;;6.15;100.00
9474;BME280;8865;47.636;7.692;2022-11-12T03:02:53;99817.09;;;6.19;100.00
9474;BME280;8865;47.636;7.692;2022-11-12T03:05:25;99813.59;;;6.20;100.00
9474;BME280;8865;47.636;7.692;2022-11-12T03:07:55;99821.13;;;6.26;100.00
9474;BME280;8865;47.636;7.692;2022-11-12T03:10:22;99810.72;;;6.26;100.00
9474;BME280;8865;47.636;7.692;2022-11-12T03:12:48;99811.31;;;6.33;100.00
9474;BME280;8865;47.636;7.692;2022-11-12T03:15:14;99798.03;;;6.39;100.00
9474;BME280;8865;47.636;7.692;2022-11-12T03:17:42;99801.34;;;6.42;100.00
9474;BME280;8865;47.636;7.692;2022-11-12T03:20:09;99803.81;;;6.46;100.00
9474;BME280;8865;47.636;7.692;2022-11-12T03:22:36;99795.38;;;6.40;100.00
9474;BME280;8865;47.636;7.692;2022-11-12T03:25:03;99801.19;;;6.46;100.00
9474;BME280;8865;47.636;7.692;2022-11-12T03:27:29;99799.44;;;6.46;100.00
9474;BME280;8865;47.636;7.692;2022-11-12T03:29:55;99805.56;;;6.45;100.00
9474;BME280;8865;47.636;7.692;2022-11-12T03:32:22;99793.59;;;6.41;100.00
9474;BME280;8865;47.636;7.692;2022-11-12T03:34:47;99796.28;;;6.39;100.00
9474;BME280;8865;47.636;7.692;2022-11-12T03:37:14;99793.66;;;6.39;100.00
9474;BME280;8865;47.636;7.692;2022-11-12T03:39:40;99787.69;;;6.37;100.00
9474;BME280;8865;47.636;7.692;2022-11-12T03:42:07;99785.59;;;6.25;100.00
9474;BME280;8865;47.636;7.692;2022-11-12T03:44:33;99789.28;;;6.21;100.00
9474;BME280;8865;47.636;7.692;2022-11-12T03:46:59;99786.75;;;6.19;100.00
9474;BME280;8865;47.636;7.692;2022-11-12T03:49:25;99794.59;;;6.18;100.00
9474;BME280;8865;47.636;7.692;2022-11-12T03:51:51;99796.53;;;6.13;100.00
9474;BME280;8865;47.636;7.692;2022-11-12T03:54:17;99796.69;;;6.10;100.00
9474;BME280;8865;47.636;7.692;2022-11-12T03:56:44;99787.34;;;6.05;100.00
9474;BME280;8865;47.636;7.692;2022-11-12T03:59:10;99789.06;;;6.05;100.00
9474;BME280;8865;47.636;7.692;2022-11-12T04:01:36;99788.22;;;6.04;100.00
9474;BME280;8865;47.636;7.692;2022-11-12T04:04:02;99787.06;;;6.12;100.00
9474;BME280;8865;47.636;7.692;2022-11-12T04:06:28;99782.06;;;6.07;100.00
9474;BME280;8865;47.636;7.692;2022-11-12T04:09:13;99780.56;;;6.01;100.00
9474;BME280;8865;47.636;7.692;2022-11-12T04:11:39;99785.75;;;6.01;100.00
9474;BME280;8865;47.636;7.692;2022-11-12T04:14:05;99783.03;;;6.04;100.00
9474;BME280;8865;47.636;7.692;2022-11-12T04:16:31;99779.53;;;6.05;100.00
9474;BME280;8865;47.636;7.692;2022-11-12T04:19:15;99775.84;;;6.10;100.00
9474;BME280;8865;47.636;7.692;2022-11-12T04:22:08;99776.13;;;6.03;100.00
9474;BME280;8865;47.636;7.692;2022-11-12T04:24:36;99772.56;;;6.06;100.00
9474;BME280;8865;47.636;7.692;2022-11-12T04:27:24;99781.19;;;6.06;100.00
9474;BME280;8865;47.636;7.692;2022-11-12T04:29:51;99774.19;;;6.08;100.00
9474;BME280;8865;47.636;7.692;2022-11-12T04:32:47;99777.63;;;6.09;100.00
9474;BME280;8865;47.636;7.692;2022-11-12T04:35:13;99781.06;;;6.10;100.00
9474;BME280;8865;47.636;7.692;2022-11-12T04:37:39;99781.88;;;6.12;100.00
9474;BME280;8865;47.636;7.692;2022-11-12T04:40:20;99778.34;;;6.13;100.00
9474;BME280;8865;47.636;7.692;2022-11-12T04:43:08;99783.34;;;6.17;100.00
9474;BME280;8865;47.636;7.692;2022-11-12T04:45:53;99775.72;;;6.13;100.00
9474;BME280;8865;47.636;7.692;2022-11-12T04:48:20;99774.97;;;6.11;100.00
9474;BME280;8865;47.636;7.692;2022-11-12T04:50:49;99782.56;;;6.15;100.00
9474;BME280;8865;47.636;7.692;2022-11-12T04:53:17;99781.59;;;6.18;100.00
9474;BME280;8865;47.636;7.692;2022-11-12T04:55:43;99775.47;;;6.19;100.00
9474;BME280;8865;47.636;7.692;2022-11-12T04:58:09;99779.59;;;6.04;100.00
9474;BME280;8865;47.636;7.692;2022-11-12T05:00:35;99782.75;;;6.11;100.00
9474;BME280;8865;47.636;7.692;2022-11-12T05:03:01;99781.19;;;6.06;100.00
9474;BME280;8865;47.636;7.692;2022-11-12T05:05:27;99780.50;;;6.03;100.00
9474;BME280;8865;47.636;7.692;2022-11-12T05:07:53;99779.03;;;5.96;100.00
9474;BME280;8865;47.636;7.692;2022-11-12T05:10:19;99773.13;;;5.92;100.00
9474;BME280;8865;47.636;7.692;2022-11-12T05:12:45;99768.13;;;5.87;100.00
9474;BME280;8865;47.636;7.692;2022-11-12T05:15:11;99767.34;;;5.85;100.00
9474;BME280;8865;47.636;7.692;2022-11-12T05:17:43;99770.13;;;5.81;100.00
9474;BME280;8865;47.636;7.692;2022-11-12T05:20:11;99764.41;;;5.72;100.00
9474;BME280;8865;47.636;7.692;2022-11-12T05:22:37;99756.59;;;5.72;100.00
9474;BME280;8865;47.636;7.692;2022-11-12T05:25:05;99765.19;;;5.75;100.00
9474;BME280;8865;47.636;7.692;2022-11-12T05:27:31;99761.78;;;5.72;100.00
9474;BME280;8865;47.636;7.692;2022-11-12T05:29:57;99765.19;;;5.75;100.00
9474;BME280;8865;47.636;7.692;2022-11-12T05:32:23;99760.91;;;5.73;100.00
9474;BME280;8865;47.636;7.692;2022-11-12T05:34:49;99760.06;;;5.73;100.00
9474;BME280;8865;47.636;7.692;2022-11-12T05:37:15;99755.44;;;5.80;100.00
9474;BME280;8865;47.636;7.692;2022-11-12T05:39:41;99757.91;;;5.83;100.00
9474;BME280;8865;47.636;7.692;2022-11-12T05:42:08;99749.97;;;5.86;100.00
9474;BME280;8865;47.636;7.692;2022-11-12T05:44:34;99749.06;;;5.87;100.00
9474;BME280;8865;47.636;7.692;2022-11-12T05:47:00;99751.69;;;5.87;100.00
9474;BME280;8865;47.636;7.692;2022-11-12T05:49:26;99747.38;;;5.86;100.00
9474;BME280;8865;47.636;7.692;2022-11-12T05:51:52;99747.56;;;5.81;100.00
9474;BME280;8865;47.636;7.692;2022-11-12T05:54:18;99746.41;;;5.88;100.00
9474;BME280;8865;47.636;7.692;2022-11-12T05:56:44;99752.44;;;5.89;100.00
9474;BME280;8865;47.636;7.692;2022-11-12T05:59:11;99749.97;;;5.86;100.00
9474;BME280;8865;47.636;7.692;2022-11-12T06:01:38;99751.75;;;5.85;100.00
9474;BME280;8865;47.636;7.692;2022-11-12T06:04:12;99760.31;;;5.87;100.00
9474;BME280;8865;47.636;7.692;2022-11-12T06:06:40;99758.47;;;5.89;100.00
9474;BME280;8865;47.636;7.692;2022-11-12T06:09:06;99758.41;;;5.91;100.00
9474;BME280;8865;47.636;7.692;2022-11-12T06:11:33;99756.69;;;5.92;100.00
9474;BME280;8865;47.636;7.692;2022-11-12T06:14:00;99753.22;;;5.91;100.00
9474;BME280;8865;47.636;7.692;2022-11-12T06:16:26;99756.06;;;5.85;100.00
9474;BME280;8865;47.636;7.692;2022-11-12T06:18:53;99756.06;;;5.85;100.00
9474;BME280;8865;47.636;7.692;2022-11-12T06:21:19;99755.31;;;5.83;100.00
9474;BME280;8865;47.636;7.692;2022-11-12T06:23:45;99751.66;;;5.66;100.00
9474;BME280;8865;47.636;7.692;2022-11-12T06:26:11;99757.84;;;5.64;100.00
9474;BME280;8865;47.636;7.692;2022-11-12T06:28:38;99753.59;;;5.61;100.00
9474;BME280;8865;47.636;7.692;2022-11-12T06:31:04;99752.91;;;5.58;100.00
9474;BME280;8865;47.636;7.692;2022-11-12T06:33:30;99764.97;;;5.59;100.00
9474;BME280;8865;47.636;7.692;2022-11-12T06:36:01;99772.56;;;5.63;100.00
9474;BME280;8865;47.636;7.692;2022-11-12T06:38:35;99774.16;;;5.67;100.00
9474;BME280;8865;47.636;7.692;2022-11-12T06:41:02;99777.34;;;5.74;100.00
9474;BME280;8865;47.636;7.692;2022-11-12T06:43:30;99774.34;;;5.83;100.00
9474;BME280;8865;47.636;7.692;2022-11-12T06:46:06;99779.28;;;5.89;100.00
9474;BME280;8865;47.636;7.692;2022-11-12T06:48:32;99783.59;;;5.90;100.00
9474;BME280;8865;47.636;7.692;2022-11-12T06:51:05;99775.59;;;5.95;100.00
9474;BME280;8865;47.636;7.692;2022-11-12T06:53:31;99782.56;;;5.95;100.00
9474;BME280;8865;47.636;7.692;2022-11-12T06:56:01;99790.19;;;5.99;100.00
9474;BME280;8865;47.636;7.692;2022-11-12T06:58:27;99785.81;;;6.00;100.00
9474;BME280;8865;47.636;7.692;2022-11-12T07:00:53;99791.88;;;6.00;100.00
9474;BME280;8865;47.636;7.692;2022-11-12T07:03:18;99793.16;;;6.11;100.00
9474;BME280;8865;47.636;7.692;2022-11-12T07:05:44;99792.91;;;6.17;100.00
9474;BME280;8865;47.636;7.692;2022-11-12T07:08:10;99786.88;;;6.16;100.00
9474;BME280;8865;47.636;7.692;2022-11-12T07:10:36;99795.38;;;6.20;100.00
9474;BME280;8865;47.636;7.692;2022-11-12T07:13:02;99787.00;;;6.13;100.00
9474;BME280;8865;47.636;7.692;2022-11-12T07:15:28;99795.31;;;6.21;100.00
9474;BME280;8865;47.636;7.692;2022-11-12T07:17:54;99796.16;;;6.22;100.00
9474;BME280;8865;47.636;7.692;2022-11-12T07:20:20;99800.44;;;6.23;100.00
9474;BME280;8865;47.636;7.692;2022-11-12T07:22:46;99802.97;;;6.24;100.00
9474;BME280;8865;47.636;7.692;2022-11-12T07:25:12;99800.84;;;6.34;100.00
9474;BME280;8865;47.636;7.692;2022-11-12T07:27:38;99807.78;;;6.34;100.00
9474;BME280;8865;47.636;7.692;2022-11-12T07:30:04;99805.97;;;6.36;100.00
9474;BME280;8865;47.636;7.692;2022-11-12T07:32:31;99806.47;;;6.44;100.00
9474;BME280;8865;47.636;7.692;2022-11-12T07:34:56;99811.34;;;6.52;100.00
9474;BME280;8865;47.636;7.692;2022-11-12T07:37:22;99819.56;;;6.61;100.00
9474;BME280;8865;47.636;7.692;2022-11-12T07:39:48;99821.84;;;6.69;100.00
9474;BME280;8865;47.636;7.692;2022-11-12T07:42:15;99825.78;;;6.78;100.00
9474;BME280;8865;47.636;7.692;2022-11-12T07:44:41;99811.72;;;6.82;100.00
9474;BME280;8865;47.636;7.692;2022-11-12T07:47:07;99819.88;;;6.93;100.00
9474;BME280;8865;47.636;7.692;2022-11-12T07:49:33;99814.59;;;6.95;100.00
9474;BME280;8865;47.636;7.692;2022-11-12T07:51:59;99813.69;;;6.96;100.00
9474;BME280;8865;47.636;7.692;2022-11-12T07:54:25;99809.03;;;7.03;100.00
9474;BME280;8865;47.636;7.692;2022-11-12T07:56:51;99816.72;;;7.06;100.00
9474;BME280;8865;47.636;7.692;2022-11-12T07:59:17;99811.06;;;7.15;100.00
9474;BME280;8865;47.636;7.692;2022-11-12T08:01:42;99805.09;;;7.13;100.00
9474;BME280;8865;47.636;7.692;2022-11-12T08:04:10;99817.19;;;7.14;100.00
9474;BME280;8865;47.636;7.692;2022-11-12T08:06:37;99814.28;;;7.20;100.00
9474;BME280;8865;47.636;7.692;2022-11-12T08:09:05;99811.97;;;7.33;100.00
9474;BME280;8865;47.636;7.692;2022-11-12T08:11:31;99798.28;;;7.47;100.00
9474;BME280;8865;47.636;7.692;2022-11-12T08:13:57;99795.22;;;7.56;100.00
9474;BME280;8865;47.636;7.692;2022-11-12T08:16:23;99807.34;;;7.57;100.00
9474;BME280;8865;47.636;7.692;2022-11-12T08:18:49;99807.28;;;7.59;100.00
9474;BME280;8865;47.636;7.692;2022-11-12T08:21:17;99809.50;;;7.66;100.00
9474;BME280;8865;47.636;7.692;2022-11-12T08:23:43;99807.56;;;7.70;100.00
9474;BME280;8865;47.636;7.692;2022-11-12T08:26:12;99807.41;;;7.73;100.00
9474;BME280;8865;47.636;7.692;2022-11-12T08:28:38;99810.88;;;7.74;100.00
9474;BME280;8865;47.636;7.692;2022-11-12T08:31:09;99801.97;;;7.78;100.00
9474;BME280;8865;47.636;7.692;2022-11-12T08:33:36;99800.75;;;7.85;100.00
9474;BME280;8865;47.636;7.692;2022-11-12T08:36:11;99797.91;;;7.90;100.00
9474;BME280;8865;47.636;7.692;2022-11-12T08:38:37;99797.06;;;8.07;100.00
9474;BME280;8865;47.636;7.692;2022-11-12T08:41:07;99802.84;;;8.29;100.00
9474;BME280;8865;47.636;7.692;2022-11-12T08:43:33;99796.03;;;8.44;100.00
9474;BME280;8865;47.636;7.692;2022-11-12T08:46:00;99797.22;;;8.54;100.00
9474;BME280;8865;47.636;7.692;2022-11-12T08:48:27;99809.63;;;8.67;100.00
9474;BME280;8865;47.636;7.692;2022-11-12T08:50:54;99802.75;;;8.82;100.00
9474;BME280;8865;47.636;7.692;2022-11-12T08:53:21;99812.09;;;8.86;100.00
9474;BME280;8865;47.636;7.692;2022-11-12T08:55:48;99813.47;;;8.93;100.00
9474;BME280;8865;47.636;7.692;2022-11-12T08:58:16;99807.06;;;8.99;100.00
9474;BME280;8865;47.636;7.692;2022-11-12T09:00:43;99813.47;;;9.09;100.00
9474;BME280;8865;47.636;7.692;2022-11-12T09:03:13;99793.78;;;9.34;100.00
9474;BME280;8865;47.636;7.692;2022-11-12T09:05:40;99801.00;;;9.60;100.00
9474;BME280;8865;47.636;7.692;2022-11-12T09:08:09;99803.84;;;10.02;100.00
9474;BME280;8865;47.636;7.692;2022-11-12T09:10:36;99798.97;;;10.55;100.00
9474;BME280;8865;47.636;7.692;2022-11-12T09:13:03;99794.25;;;10.75;100.00
9474;BME280;8865;47.636;7.692;2022-11-12T09:15:29;99791.53;;;10.76;100.00
9474;BME280;8865;47.636;7.692;2022-11-12T09:18:03;99789.22;;;10.86;100.00
9474;BME280;8865;47.636;7.692;2022-11-12T09:20:30;99787.66;;;10.96;100.00
9474;BME280;8865;47.636;7.692;2022-11-12T09:23:01;99786.59;;;11.13;100.00
9474;BME280;8865;47.636;7.692;2022-11-12T09:25:29;99788.50;;;11.66;100.00
9474;BME280;8865;47.636;7.692;2022-11-12T09:27:55;99771.88;;;12.18;100.00
9474;BME280;8865;47.636;7.692;2022-11-12T09:30:21;99774.69;;;12.54;100.00
9474;BME280;8865;47.636;7.692;2022-11-12T09:32:47;99774.03;;;12.63;100.00
9474;BME280;8865;47.636;7.692;2022-11-12T09:35:14;99770.03;;;12.57;100.00
9474;BME280;8865;47.636;7.692;2022-11-12T09:37:40;99763.25;;;12.92;100.00
9474;BME280;8865;47.636;7.692;2022-11-12T09:40:09;99768.59;;;13.51;100.00
9474;BME280;8865;47.636;7.692;2022-11-12T09:42:41;99756.91;;;14.02;100.00
9474;BME280;8865;47.636;7.692;2022-11-12T09:45:25;99758.00;;;14.22;100.00
9474;BME280;8865;47.636;7.692;2022-11-12T09:47:58;99761.34;;;14.92;100.00
9474;BME280;8865;47.636;7.692;2022-11-12T09:50:39;99756.03;;;15.04;100.00
9474;BME280;8865;47.636;7.692;2022-11-12T09:55:44;99753.28;;;14.94;100.00
9474;BME280;8865;47.636;7.692;2022-11-12T09:58:11;99762.59;;;14.66;100.00
9474;BME280;8865;47.636;7.692;2022-11-12T10:00:42;99762.94;;;14.84;100.00
9474;BME280;8865;47.636;7.692;2022-11-12T10:06:11;99750.59;;;17.44;100.00
9474;BME280;8865;47.636;7.692;2022-11-12T10:08:57;99743.47;;;19.14;99.11
9474;BME280;8865;47.636;7.692;2022-11-12T10:17:14;99737.38;;;18.20;97.16
9474;BME280;8865;47.636;7.692;2022-11-12T10:22:57;99724.50;;;18.81;93.71
9474;BME280;8865;47.636;7.692;2022-11-12T10:25:26;99720.78;;;19.02;92.33
9474;BME280;8865;47.636;7.692;2022-11-12T10:27:54;99723.19;;;19.13;84.88
9474;BME280;8865;47.636;7.692;2022-11-12T10:30:23;99715.72;;;20.23;79.72
9474;BME280;8865;47.636;7.692;2022-11-12T10:32:51;99715.13;;;20.72;75.40
9474;BME280;8865;47.636;7.692;2022-11-12T10:35:22;99706.53;;;21.85;66.20
9474;BME280;8865;47.636;7.692;2022-11-12T10:37:54;99708.25;;;23.28;59.08
9474;BME280;8865;47.636;7.692;2022-11-12T10:40:37;99700.28;;;24.92;52.73
9474;BME280;8865;47.636;7.692;2022-11-12T10:45:31;99699.31;;;25.22;44.59
9474;BME280;8865;47.636;7.692;2022-11-12T10:47:57;99699.72;;;24.46;47.26
9474;BME280;8865;47.636;7.692;2022-11-12T10:50:44;99705.38;;;24.36;46.11
9474;BME280;8865;47.636;7.692;2022-11-12T10:53:11;99697.78;;;23.42;50.47
9474;BME280;8865;47.636;7.692;2022-11-12T10:55:57;99691.31;;;23.36;48.87
9474;BME280;8865;47.636;7.692;2022-11-12T10:58:23;99684.41;;;24.39;48.28
9474;BME280;8865;47.636;7.692;2022-11-12T11:01:00;99682.78;;;24.09;46.60
9474;BME280;8865;47.636;7.692;2022-11-12T11:03:35;99682.78;;;24.23;46.01
9474;BME280;8865;47.636;7.692;2022-11-12T11:06:04;99670.09;;;25.48;44.91
9474;BME280;8865;47.636;7.692;2022-11-12T11:08:45;99672.72;;;26.47;41.86
9474;BME280;8865;47.636;7.692;2022-11-12T11:13:48;99664.72;;;26.60;41.36
9474;BME280;8865;47.636;7.692;2022-11-12T11:16:20;99660.91;;;27.09;40.62
9474;BME280;8865;47.636;7.692;2022-11-12T11:18:53;99660.84;;;26.83;40.36
9474;BME280;8865;47.636;7.692;2022-11-12T11:23:55;99646.78;;;25.06;43.04
9474;BME280;8865;47.636;7.692;2022-11-12T11:31:43;99634.84;;;26.28;40.41
9474;BME280;8865;47.636;7.692;2022-11-12T11:37:23;99635.44;;;26.85;40.30
9474;BME280;8865;47.636;7.692;2022-11-12T11:40:14;99630.81;;;26.52;40.11
9474;BME280;8865;47.636;7.692;2022-11-12T11:51:21;99619.19;;;24.62;44.35
9474;BME280;8865;47.636;7.692;2022-11-12T11:56:50;99611.06;;;24.77;44.25
9474;BME280;8865;47.636;7.692;2022-11-12T12:02:28;99611.53;;;24.44;43.96
9474;BME280;8865;47.636;7.692;2022-11-12T12:21:44;99585.97;;;26.05;39.58
9474;BME280;8865;47.636;7.692;2022-11-12T12:24:19;99587.66;;;25.36;40.93
9474;BME280;8865;47.636;7.692;2022-11-12T12:26:51;99586.69;;;24.93;42.11
9474;BME280;8865;47.636;7.692;2022-11-12T12:29:27;99584.94;;;23.76;44.54
9474;BME280;8865;47.636;7.692;2022-11-12T12:32:11;99582.78;;;22.65;46.84
9474;BME280;8865;47.636;7.692;2022-11-12T12:34:42;99578.50;;;20.88;51.91
9474;BME280;8865;47.636;7.692;2022-11-12T12:37:23;99568.25;;;20.26;57.53
9474;BME280;8865;47.636;7.692;2022-11-12T12:40:19;99574.25;;;19.59;69.44
9474;BME280;8865;47.636;7.692;2022-11-12T12:42:52;99570.53;;;18.99;75.75
9474;BME280;8865;47.636;7.692;2022-11-12T12:48:06;99569.78;;;18.07;89.87
9474;BME280;8865;47.636;7.692;2022-11-12T12:50:36;99572.72;;;17.39;94.91
9474;BME280;8865;47.636;7.692;2022-11-12T12:55:41;99566.34;;;17.12;100.00
9474;BME280;8865;47.636;7.692;2022-11-12T12:58:33;99563.69;;;16.63;100.00
9474;BME280;8865;47.636;7.692;2022-11-12T13:04:02;99558.19;;;15.65;100.00
9474;BME280;8865;47.636;7.692;2022-11-12T13:06:34;99556.94;;;15.39;100.00
9474;BME280;8865;47.636;7.692;2022-11-12T13:09:19;99562.03;;;15.09;100.00
9474;BME280;8865;47.636;7.692;2022-11-12T13:11:50;99553.25;;;14.67;100.00
9474;BME280;8865;47.636;7.692;2022-11-12T13:43:57;99554.72;;;14.16;100.00
9474;BME280;8865;47.636;7.692;2022-11-12T13:46:36;99547.66;;;14.16;100.00
9474;BME280;8865;47.636;7.692;2022-11-12T13:49:05;99561.34;;;13.99;100.00
9474;BME280;8865;47.636;7.692;2022-11-12T13:51:46;99548.03;;;14.00;100.00
9474;BME280;8865;47.636;7.692;2022-11-12T13:54:35;99541.34;;;14.07;100.00
9474;BME280;8865;47.636;7.692;2022-11-12T13:59:45;99540.78;;;14.25;100.00
9474;BME280;8865;47.636;7.692;2022-11-12T14:02:25;99538.34;;;14.01;100.00
9474;BME280;8865;47.636;7.692;2022-11-12T14:04:52;99549.75;;;13.90;100.00
9474;BME280;8865;47.636;7.692;2022-11-12T14:07:38;99536.59;;;13.90;100.00
9474;BME280;8865;47.636;7.692;2022-11-12T14:10:20;99531.56;;;13.87;100.00
9474;BME280;8865;47.636;7.692;2022-11-12T14:20:44;99532.28;;;13.44;100.00
9474;BME280;8865;47.636;7.692;2022-11-12T14:23:20;99526.88;;;13.34;100.00
9474;BME280;8865;47.636;7.692;2022-11-12T14:25:52;99525.06;;;13.23;100.00
9474;BME280;8865;47.636;7.692;2022-11-12T14:28:33;99515.97;;;13.27;100.00
9474;BME280;8865;47.636;7.692;2022-11-12T14:31:00;99518.09;;;13.22;100.00
9474;BME280;8865;47.636;7.692;2022-11-12T14:33:28;99512.59;;;13.14;100.00
9474;BME280;8865;47.636;7.692;2022-11-12T14:36:14;99517.25;;;12.99;100.00
9474;BME280;8865;47.636;7.692;2022-11-12T14:38:49;99513.41;;;12.92;100.00
9474;BME280;8865;47.636;7.692;2022-11-12T14:43:47;99518.91;;;12.89;100.00
9474;BME280;8865;47.636;7.692;2022-11-12T14:46:29;99515.78;;;12.83;100.00
9474;BME280;8865;47.636;7.692;2022-11-12T14:51:27;99516.25;;;12.53;100.00
9474;BME280;8865;47.636;7.692;2022-11-12T14:54:06;99519.13;;;12.50;100.00
9474;BME280;8865;47.636;7.692;2022-11-12T14:56:40;99521.47;;;12.42;100.00
9474;BME280;8865;47.636;7.692;2022-11-12T14:59:10;99518.13;;;12.40;100.00
9474;BME280;8865;47.636;7.692;2022-11-12T15:01:38;99515.22;;;12.31;100.00
9474;BME280;8865;47.636;7.692;2022-11-12T15:06:32;99518.31;;;12.01;100.00
9474;BME280;8865;47.636;7.692;2022-11-12T15:08:58;99523.13;;;11.94;100.00
9474;BME280;8865;47.636;7.692;2022-11-12T15:11:31;99518.41;;;11.87;100.00
9474;BME280;8865;47.636;7.692;2022-11-12T15:14:01;99512.69;;;11.69;100.00
9474;BME280;8865;47.636;7.692;2022-11-12T15:16:33;99512.38;;;11.73;100.00
9474;BME280;8865;47.636;7.692;2022-11-12T15:19:15;99508.06;;;11.72;100.00
9474;BME280;8865;47.636;7.692;2022-11-12T15:24:28;99511.50;;;11.73;100.00
9474;BME280;8865;47.636;7.692;2022-11-12T15:26:58;99521.06;;;11.74;100.00
9474;BME280;8865;47.636;7.692;2022-11-12T15:31:53;99502.53;;;11.64;100.00
9474;BME280;8865;47.636;7.692;2022-11-12T15:37:17;99499.47;;;11.57;100.00
9474;BME280;8865;47.636;7.692;2022-11-12T15:39:48;99493.81;;;11.51;100.00